sensor_id;sensor_type;location;lat;lon;timestamp;pressure;altitude;pressure_sealevel;temperature;humidity
28167;BME280;15455;53.376;-6.262;2023-05-02T00:02:21;102090.75;;;6.29;100.00
28167;BME280;15455;53.376;-6.262;2023-05-02T00:05:06;102083.44;;;6.19;100.00
28167;BME280;15455;53.376;-6.262;2023-05-02T00:07:52;102086.81;;;6.16;100.00
28167;BME280;15455;53.376;-6.262;2023-05-02T00:10:38;102088.38;;;6.35;100.00
28167;BME280;15455;53.376;-6.262;2023-05-02T00:13:23;102102.06;;;6.55;100.00
28167;BME280;15455;53.376;-6.262;2023-05-02T00:16:09;102114.41;;;6.87;100.00
28167;BME280;15455;53.376;-6.262;2023-05-02T00:18:55;102116.19;;;7.13;100.00
28167;BME280;15455;53.376;-6.262;2023-05-02T00:21:40;102116.06;;;7.36;100.00
28167;BME280;15455;53.376;-6.262;2023-05-02T00:24:26;102127.19;;;7.59;100.00
28167;BME280;15455;53.376;-6.262;2023-05-02T00:27:11;102131.34;;;7.80;100.00
28167;BME280;15455;53.376;-6.262;2023-05-02T00:29:59;102125.63;;;7.92;100.00
28167;BME280;15455;53.376;-6.262;2023-05-02T00:32:45;102139.72;;;8.00;100.00
28167;BME280;15455;53.376;-6.262;2023-05-02T00:35:32;102135.59;;;8.07;100.00
28167;BME280;15455;53.376;-6.262;2023-05-02T00:38:17;102140.19;;;8.15;100.00
28167;BME280;15455;53.376;-6.262;2023-05-02T00:41:03;102143.88;;;8.22;100.00
28167;BME280;15455;53.376;-6.262;2023-05-02T00:43:49;102146.72;;;8.31;100.00
28167;BME280;15455;53.376;-6.262;2023-05-02T00:46:35;102142.59;;;8.38;100.00
28167;BME280;15455;53.376;-6.262;2023-05-02T00:49:21;102152.50;;;8.50;100.00
28167;BME280;15455;53.376;-6.262;2023-05-02T00:52:07;102158.78;;;8.57;100.00
28167;BME280;15455;53.376;-6.262;2023-05-02T00:54:53;102152.88;;;8.62;100.00
28167;BME280;15455;53.376;-6.262;2023-05-02T00:57:39;102154.81;;;8.69;100.00
28167;BME280;15455;53.376;-6.262;2023-05-02T01:00:31;102151.53;;;8.77;100.00
28167;BME280;15455;53.376;-6.262;2023-05-02T01:07:01;102157.78;;;8.83;100.00
28167;BME280;15455;53.376;-6.262;2023-05-02T01:15:39;102150.28;;;8.94;100.00
28167;BME280;15455;53.376;-6.262;2023-05-02T01:18:30;102146.84;;;8.97;100.00
28167;BME280;15455;53.376;-6.262;2023-05-02T01:21:17;102150.44;;;9.00;100.00
28167;BME280;15455;53.376;-6.262;2023-05-02T01:24:13;102149.59;;;9.01;100.00
28167;BME280;15455;53.376;-6.262;2023-05-02T01:29:59;102145.34;;;9.05;100.00
28167;BME280;15455;53.376;-6.262;2023-05-02T01:32:48;102150.63;;;9.08;100.00
28167;BME280;15455;53.376;-6.262;2023-05-02T01:35:36;102151.53;;;9.09;100.00
28167;BME280;15455;53.376;-6.262;2023-05-02T01:38:23;102148.91;;;9.09;100.00
28167;BME280;15455;53.376;-6.262;2023-05-02T01:41:11;102153.28;;;9.11;100.00
28167;BME280;15455;53.376;-6.262;2023-05-02T01:43:58;102142.91;;;9.13;100.00
28167;BME280;15455;53.376;-6.262;2023-05-02T01:46:44;102144.69;;;9.14;100.00
28167;BME280;15455;53.376;-6.262;2023-05-02T01:49:32;102143.03;;;9.16;100.00
28167;BME280;15455;53.376;-6.262;2023-05-02T01:52:19;102143.91;;;9.16;100.00
28167;BME280;15455;53.376;-6.262;2023-05-02T01:55:09;102143.03;;;9.16;100.00
28167;BME280;15455;53.376;-6.262;2023-05-02T01:57:57;102139.59;;;9.18;100.00
28167;BME280;15455;53.376;-6.262;2023-05-02T02:00:43;102141.31;;;9.18;100.00
28167;BME280;15455;53.376;-6.262;2023-05-02T02:03:30;102129.22;;;9.20;100.00
28167;BME280;15455;53.376;-6.262;2023-05-02T02:06:17;102125.66;;;9.16;100.00
28167;BME280;15455;53.376;-6.262;2023-05-02T02:09:04;102138.72;;;9.18;100.00
28167;BME280;15455;53.376;-6.262;2023-05-02T02:12:00;102140.47;;;9.17;100.00
28167;BME280;15455;53.376;-6.262;2023-05-02T02:14:56;102136.94;;;9.17;100.00
28167;BME280;15455;53.376;-6.262;2023-05-02T02:17:51;102140.47;;;9.17;100.00
28167;BME280;15455;53.376;-6.262;2023-05-02T02:20:43;102141.31;;;9.18;100.00
28167;BME280;15455;53.376;-6.262;2023-05-02T02:23:32;102143.06;;;9.17;100.00
28167;BME280;15455;53.376;-6.262;2023-05-02T02:26:19;102142.16;;;9.17;100.00
28167;BME280;15455;53.376;-6.262;2023-05-02T02:29:06;102142.09;;;9.14;100.00
28167;BME280;15455;53.376;-6.262;2023-05-02T02:31:51;102139.47;;;9.14;100.00
28167;BME280;15455;53.376;-6.262;2023-05-02T02:34:37;102144.69;;;9.14;100.00
28167;BME280;15455;53.376;-6.262;2023-05-02T02:40:23;102143.72;;;9.09;100.00
28167;BME280;15455;53.376;-6.262;2023-05-02T02:43:47;102150.63;;;9.08;100.00
28167;BME280;15455;53.376;-6.262;2023-05-02T02:49:37;102151.41;;;9.06;100.00
28167;BME280;15455;53.376;-6.262;2023-05-02T02:52:39;102147.97;;;9.07;100.00
28167;BME280;15455;53.376;-6.262;2023-05-02T02:55:52;102152.31;;;9.06;100.00
28167;BME280;15455;53.376;-6.262;2023-05-02T02:58:54;102149.72;;;9.06;100.00
28167;BME280;15455;53.376;-6.262;2023-05-02T03:01:43;102150.47;;;9.02;100.00
28167;BME280;15455;53.376;-6.262;2023-05-02T03:04:33;102152.19;;;9.01;100.00
28167;BME280;15455;53.376;-6.262;2023-05-02T03:07:20;102156.53;;;9.02;100.00
28167;BME280;15455;53.376;-6.262;2023-05-02T03:10:07;102147.78;;;8.99;100.00
28167;BME280;15455;53.376;-6.262;2023-05-02T03:12:54;102149.41;;;8.95;100.00
28167;BME280;15455;53.376;-6.262;2023-05-02T03:18:42;102150.66;;;8.78;100.00
28167;BME280;15455;53.376;-6.262;2023-05-02T03:21:28;102142.63;;;8.68;100.00
28167;BME280;15455;53.376;-6.262;2023-05-02T03:24:21;102144.06;;;8.59;100.00
28167;BME280;15455;53.376;-6.262;2023-05-02T03:27:10;102158.59;;;8.50;100.00
28167;BME280;15455;53.376;-6.262;2023-05-02T03:29:59;102147.09;;;8.44;100.00
28167;BME280;15455;53.376;-6.262;2023-05-02T03:32:47;102154.72;;;8.38;100.00
28167;BME280;15455;53.376;-6.262;2023-05-02T03:35:33;102149.38;;;8.33;100.00
28167;BME280;15455;53.376;-6.262;2023-05-02T03:38:20;102138.00;;;8.29;100.00
28167;BME280;15455;53.376;-6.262;2023-05-02T03:41:07;102135.31;;;8.26;100.00
28167;BME280;15455;53.376;-6.262;2023-05-02T03:43:53;102131.00;;;8.27;100.00
28167;BME280;15455;53.376;-6.262;2023-05-02T03:46:40;102128.41;;;8.27;100.00
28167;BME280;15455;53.376;-6.262;2023-05-02T03:49:29;102130.25;;;8.31;100.00
28167;BME280;15455;53.376;-6.262;2023-05-02T03:52:14;102126.88;;;8.33;100.00
28167;BME280;15455;53.376;-6.262;2023-05-02T03:55:01;102127.78;;;8.35;100.00
28167;BME280;15455;53.376;-6.262;2023-05-02T03:57:47;102131.28;;;8.38;100.00
28167;BME280;15455;53.376;-6.262;2023-05-02T04:00:33;102139.16;;;8.39;100.00
28167;BME280;15455;53.376;-6.262;2023-05-02T04:03:22;102147.00;;;8.41;100.00
28167;BME280;15455;53.376;-6.262;2023-05-02T04:06:09;102144.50;;;8.44;100.00
28167;BME280;15455;53.376;-6.262;2023-05-02T04:08:55;102145.53;;;8.49;100.00
28167;BME280;15455;53.376;-6.262;2023-05-02T04:11:47;102153.47;;;8.54;100.00
28167;BME280;15455;53.376;-6.262;2023-05-02T04:14:33;102154.44;;;8.57;100.00
28167;BME280;15455;53.376;-6.262;2023-05-02T04:17:20;102146.72;;;8.60;100.00
28167;BME280;15455;53.376;-6.262;2023-05-02T04:20:07;102147.59;;;8.61;100.00
28167;BME280;15455;53.376;-6.262;2023-05-02T04:22:55;102133.84;;;8.65;100.00
28167;BME280;15455;53.376;-6.262;2023-05-02T04:25:41;102143.44;;;8.67;100.00
28167;BME280;15455;53.376;-6.262;2023-05-02T04:28:35;102140.03;;;8.68;100.00
28167;BME280;15455;53.376;-6.262;2023-05-02T04:31:21;102145.31;;;8.72;100.00
28167;BME280;15455;53.376;-6.262;2023-05-02T04:34:08;102141.94;;;8.76;100.00
28167;BME280;15455;53.376;-6.262;2023-05-02T04:37:00;102136.81;;;8.79;100.00
28167;BME280;15455;53.376;-6.262;2023-05-02T04:39:46;102137.75;;;8.81;100.00
28167;BME280;15455;53.376;-6.262;2023-05-02T04:42:41;102138.72;;;8.84;100.00
28167;BME280;15455;53.376;-6.262;2023-05-02T04:45:37;102138.78;;;8.88;100.00
28167;BME280;15455;53.376;-6.262;2023-05-02T04:48:29;102137.09;;;8.90;100.00
28167;BME280;15455;53.376;-6.262;2023-05-02T04:51:14;102137.22;;;8.93;100.00
28167;BME280;15455;53.376;-6.262;2023-05-02T04:54:04;102137.25;;;8.94;100.00
28167;BME280;15455;53.376;-6.262;2023-05-02T04:56:49;102143.38;;;8.96;100.00
28167;BME280;15455;53.376;-6.262;2023-05-02T04:59:36;102144.34;;;9.00;100.00
28167;BME280;15455;53.376;-6.262;2023-05-02T05:02:23;102145.22;;;9.00;100.00
28167;BME280;15455;53.376;-6.262;2023-05-02T05:05:12;102140.09;;;9.03;100.00
28167;BME280;15455;53.376;-6.262;2023-05-02T05:07:57;102137.56;;;9.07;100.00
28167;BME280;15455;53.376;-6.262;2023-05-02T05:10:47;102151.53;;;9.09;100.00
28167;BME280;15455;53.376;-6.262;2023-05-02T05:13:33;102144.56;;;9.09;100.00
28167;BME280;15455;53.376;-6.262;2023-05-02T05:16:19;102148.91;;;9.09;100.00
28167;BME280;15455;53.376;-6.262;2023-05-02T05:19:05;102155.94;;;9.13;100.00
28167;BME280;15455;53.376;-6.262;2023-05-02T05:21:51;102158.63;;;9.14;100.00
28167;BME280;15455;53.376;-6.262;2023-05-02T05:24:38;102165.59;;;9.17;100.00
28167;BME280;15455;53.376;-6.262;2023-05-02T05:27:24;102157.81;;;9.18;100.00
28167;BME280;15455;53.376;-6.262;2023-05-02T05:30:09;102157.94;;;9.21;100.00
28167;BME280;15455;53.376;-6.262;2023-05-02T05:32:55;102158.81;;;9.22;100.00
28167;BME280;15455;53.376;-6.262;2023-05-02T05:35:40;102166.72;;;9.27;100.00
28167;BME280;15455;53.376;-6.262;2023-05-02T05:38:26;102160.72;;;9.29;100.00
28167;BME280;15455;53.376;-6.262;2023-05-02T05:41:12;102163.38;;;9.31;100.00
28167;BME280;15455;53.376;-6.262;2023-05-02T05:44:03;102163.44;;;9.34;100.00
28167;BME280;15455;53.376;-6.262;2023-05-02T05:46:49;102162.66;;;9.36;100.00
28167;BME280;15455;53.376;-6.262;2023-05-02T05:49:37;102163.50;;;9.37;100.00
28167;BME280;15455;53.376;-6.262;2023-05-02T05:52:26;102160.94;;;9.38;100.00
28167;BME280;15455;53.376;-6.262;2023-05-02T05:55:13;102149.66;;;9.38;100.00
28167;BME280;15455;53.376;-6.262;2023-05-02T05:57:58;102146.22;;;9.39;100.00
28167;BME280;15455;53.376;-6.262;2023-05-02T06:00:44;102147.94;;;9.40;100.00
28167;BME280;15455;53.376;-6.262;2023-05-02T06:03:30;102145.38;;;9.42;100.00
28167;BME280;15455;53.376;-6.262;2023-05-02T06:06:17;102141.97;;;9.44;100.00
28167;BME280;15455;53.376;-6.262;2023-05-02T06:09:02;102142.88;;;9.45;100.00
28167;BME280;15455;53.376;-6.262;2023-05-02T06:11:50;102143.84;;;9.50;100.00
28167;BME280;15455;53.376;-6.262;2023-05-02T06:14:36;102153.56;;;9.55;100.00
28167;BME280;15455;53.376;-6.262;2023-05-02T06:17:21;102155.50;;;9.64;100.00
28167;BME280;15455;53.376;-6.262;2023-05-02T06:20:07;102158.28;;;9.72;100.00
28167;BME280;15455;53.376;-6.262;2023-05-02T06:22:53;102153.22;;;9.78;100.00
28167;BME280;15455;53.376;-6.262;2023-05-02T06:25:39;102149.06;;;9.86;100.00
28167;BME280;15455;53.376;-6.262;2023-05-02T06:28:24;102144.00;;;9.93;100.00
28167;BME280;15455;53.376;-6.262;2023-05-02T06:31:10;102144.06;;;9.96;100.00
28167;BME280;15455;53.376;-6.262;2023-05-02T06:33:56;102144.16;;;10.00;100.00
28167;BME280;15455;53.376;-6.262;2023-05-02T06:36:42;102146.06;;;10.07;100.00
28167;BME280;15455;53.376;-6.262;2023-05-02T06:39:27;102145.34;;;10.15;100.00
28167;BME280;15455;53.376;-6.262;2023-05-02T06:42:12;102149.91;;;10.25;100.00
28167;BME280;15455;53.376;-6.262;2023-05-02T06:44:58;102150.09;;;10.33;100.00
28167;BME280;15455;53.376;-6.262;2023-05-02T06:47:43;102152.97;;;10.43;100.00
28167;BME280;15455;53.376;-6.262;2023-05-02T06:50:29;102148.78;;;10.52;100.00
28167;BME280;15455;53.376;-6.262;2023-05-02T06:53:14;102156.00;;;10.65;100.00
28167;BME280;15455;53.376;-6.262;2023-05-02T06:56:00;102150.88;;;10.71;100.00
28167;BME280;15455;53.376;-6.262;2023-05-02T06:58:46;102136.16;;;10.73;100.00
28167;BME280;15455;53.376;-6.262;2023-05-02T07:01:31;102140.53;;;10.76;100.00
28167;BME280;15455;53.376;-6.262;2023-05-02T07:04:17;102139.84;;;10.85;100.00
28167;BME280;15455;53.376;-6.262;2023-05-02T07:07:02;102146.16;;;10.98;100.00
28167;BME280;15455;53.376;-6.262;2023-05-02T07:09:48;102136.75;;;11.06;100.00
28167;BME280;15455;53.376;-6.262;2023-05-02T07:12:34;102142.09;;;11.13;100.00
28167;BME280;15455;53.376;-6.262;2023-05-02T07:15:19;102141.41;;;11.22;100.00
28167;BME280;15455;53.376;-6.262;2023-05-02T07:18:05;102136.34;;;11.33;100.00
28167;BME280;15455;53.376;-6.262;2023-05-02T07:20:50;102131.25;;;11.42;100.00
28167;BME280;15455;53.376;-6.262;2023-05-02T07:23:36;102121.81;;;11.51;100.00
28167;BME280;15455;53.376;-6.262;2023-05-02T07:26:22;102120.03;;;11.50;100.00
28167;BME280;15455;53.376;-6.262;2023-05-02T07:29:08;102130.56;;;11.53;100.00
28167;BME280;15455;53.376;-6.262;2023-05-02T07:31:54;102125.41;;;11.57;100.00
28167;BME280;15455;53.376;-6.262;2023-05-02T07:34:40;102124.72;;;11.69;100.00
28167;BME280;15455;53.376;-6.262;2023-05-02T07:37:25;102121.22;;;11.69;100.00
28167;BME280;15455;53.376;-6.262;2023-05-02T07:40:12;102127.34;;;11.71;100.00
28167;BME280;15455;53.376;-6.262;2023-05-02T07:42:59;102125.63;;;11.73;100.00
28167;BME280;15455;53.376;-6.262;2023-05-02T07:45:45;102121.22;;;11.69;100.00
28167;BME280;15455;53.376;-6.262;2023-05-02T07:48:31;102130.78;;;11.68;100.00
28167;BME280;15455;53.376;-6.262;2023-05-02T07:51:16;102139.53;;;11.69;100.00
28167;BME280;15455;53.376;-6.262;2023-05-02T07:54:18;102139.44;;;11.64;100.00
28167;BME280;15455;53.376;-6.262;2023-05-02T07:57:03;102135.88;;;11.59;100.00
28167;BME280;15455;53.376;-6.262;2023-05-02T07:59:52;102133.28;;;11.59;100.00
28167;BME280;15455;53.376;-6.262;2023-05-02T08:02:37;102131.56;;;11.61;100.00
28167;BME280;15455;53.376;-6.262;2023-05-02T08:05:23;102138.56;;;11.62;100.00
28167;BME280;15455;53.376;-6.262;2023-05-02T08:08:08;102135.22;;;11.72;100.00
28167;BME280;15455;53.376;-6.262;2023-05-02T08:10:54;102139.75;;;11.86;100.00
28167;BME280;15455;53.376;-6.262;2023-05-02T08:13:39;102139.13;;;11.97;100.00
28167;BME280;15455;53.376;-6.262;2023-05-02T08:16:25;102137.44;;;12.03;100.00
28167;BME280;15455;53.376;-6.262;2023-05-02T08:19:10;102139.28;;;12.11;100.00
28167;BME280;15455;53.376;-6.262;2023-05-02T08:21:55;102132.47;;;12.23;100.00
28167;BME280;15455;53.376;-6.262;2023-05-02T08:24:41;102137.75;;;12.27;100.00
28167;BME280;15455;53.376;-6.262;2023-05-02T08:27:26;102139.56;;;12.31;100.00
28167;BME280;15455;53.376;-6.262;2023-05-02T08:30:12;102142.09;;;12.25;100.00
28167;BME280;15455;53.376;-6.262;2023-05-02T08:32:58;102157.97;;;12.39;100.00
28167;BME280;15455;53.376;-6.262;2023-05-02T08:35:43;102158.97;;;12.49;100.00
28167;BME280;15455;53.376;-6.262;2023-05-02T08:38:29;102148.53;;;12.52;100.00
28167;BME280;15455;53.376;-6.262;2023-05-02T08:41:16;102151.16;;;12.52;100.00
28167;BME280;15455;53.376;-6.262;2023-05-02T08:44:02;102158.13;;;12.50;100.00
28167;BME280;15455;53.376;-6.262;2023-05-02T08:46:48;102160.66;;;12.44;100.00
28167;BME280;15455;53.376;-6.262;2023-05-02T08:49:36;102165.81;;;12.38;100.00
28167;BME280;15455;53.376;-6.262;2023-05-02T08:52:23;102166.56;;;12.29;100.00
28167;BME280;15455;53.376;-6.262;2023-05-02T08:55:10;102166.53;;;12.26;100.00
28167;BME280;15455;53.376;-6.262;2023-05-02T08:57:57;102175.31;;;12.28;100.00
28167;BME280;15455;53.376;-6.262;2023-05-02T09:00:44;102178.00;;;12.36;100.00
28167;BME280;15455;53.376;-6.262;2023-05-02T09:03:34;102175.59;;;12.51;100.00
28167;BME280;15455;53.376;-6.262;2023-05-02T09:06:21;102165.25;;;12.63;100.00
28167;BME280;15455;53.376;-6.262;2023-05-02T09:09:07;102169.75;;;12.74;100.00
28167;BME280;15455;53.376;-6.262;2023-05-02T09:11:52;102169.84;;;12.83;100.00
28167;BME280;15455;53.376;-6.262;2023-05-02T09:14:38;102170.75;;;12.86;100.00
28167;BME280;15455;53.376;-6.262;2023-05-02T09:17:24;102165.63;;;12.96;100.00
28167;BME280;15455;53.376;-6.262;2023-05-02T09:20:11;102164.81;;;13.00;100.00
28167;BME280;15455;53.376;-6.262;2023-05-02T09:22:57;102160.41;;;12.99;100.00
28167;BME280;15455;53.376;-6.262;2023-05-02T09:25:42;102164.84;;;13.03;100.00
28167;BME280;15455;53.376;-6.262;2023-05-02T09:28:47;102156.22;;;13.16;100.00
28167;BME280;15455;53.376;-6.262;2023-05-02T09:31:34;102143.16;;;13.21;100.00
28167;BME280;15455;53.376;-6.262;2023-05-02T09:34:26;102139.78;;;13.34;100.00
28167;BME280;15455;53.376;-6.262;2023-05-02T09:37:34;102138.03;;;13.33;100.00
28167;BME280;15455;53.376;-6.262;2023-05-02T09:40:20;102133.59;;;13.25;100.00
28167;BME280;15455;53.376;-6.262;2023-05-02T09:43:13;102143.38;;;13.43;100.00
28167;BME280;15455;53.376;-6.262;2023-05-02T09:46:05;102131.25;;;13.59;100.00
28167;BME280;15455;53.376;-6.262;2023-05-02T09:48:53;102134.88;;;13.76;100.00
28167;BME280;15455;53.376;-6.262;2023-05-02T09:51:40;102134.16;;;14.06;100.00
28167;BME280;15455;53.376;-6.262;2023-05-02T09:54:34;102136.91;;;14.33;100.00
28167;BME280;15455;53.376;-6.262;2023-05-02T09:57:21;102139.59;;;14.37;100.00
28167;BME280;15455;53.376;-6.262;2023-05-02T10:00:07;102143.09;;;14.39;100.00
28167;BME280;15455;53.376;-6.262;2023-05-02T10:02:56;102147.47;;;14.39;100.00
28167;BME280;15455;53.376;-6.262;2023-05-02T10:05:44;102141.38;;;14.57;100.00
28167;BME280;15455;53.376;-6.262;2023-05-02T10:08:32;102136.22;;;14.75;100.00
28167;BME280;15455;53.376;-6.262;2023-05-02T10:11:17;102130.16;;;14.98;100.00
28167;BME280;15455;53.376;-6.262;2023-05-02T10:14:04;102138.03;;;15.04;100.00
28167;BME280;15455;53.376;-6.262;2023-05-02T10:17:00;102140.69;;;15.21;100.00
28167;BME280;15455;53.376;-6.262;2023-05-02T10:20:06;102132.81;;;15.21;100.00
28167;BME280;15455;53.376;-6.262;2023-05-02T10:22:52;102133.66;;;15.11;100.00
28167;BME280;15455;53.376;-6.262;2023-05-02T10:25:38;102140.69;;;15.17;100.00
28167;BME280;15455;53.376;-6.262;2023-05-02T10:28:25;102148.56;;;15.26;100.00
28167;BME280;15455;53.376;-6.262;2023-05-02T10:31:15;102143.34;;;15.38;100.00
28167;BME280;15455;53.376;-6.262;2023-05-02T10:34:02;102145.09;;;15.49;100.00
28167;BME280;15455;53.376;-6.262;2023-05-02T10:36:48;102140.69;;;15.61;100.00
28167;BME280;15455;53.376;-6.262;2023-05-02T10:39:33;102148.56;;;15.86;100.00
28167;BME280;15455;53.376;-6.262;2023-05-02T10:42:19;102158.16;;;16.09;100.00
28167;BME280;15455;53.376;-6.262;2023-05-02T10:45:28;102157.25;;;16.25;100.00
28167;BME280;15455;53.376;-6.262;2023-05-02T10:48:18;102150.19;;;16.34;100.00
28167;BME280;15455;53.376;-6.262;2023-05-02T10:51:04;102155.44;;;16.37;100.00
28167;BME280;15455;53.376;-6.262;2023-05-02T10:53:50;102173.84;;;16.46;100.00
28167;BME280;15455;53.376;-6.262;2023-05-02T10:59:47;102163.25;;;16.55;100.00
28167;BME280;15455;53.376;-6.262;2023-05-02T11:05:21;102172.78;;;16.82;100.00
28167;BME280;15455;53.376;-6.262;2023-05-02T11:11:43;102160.47;;;16.92;100.00
28167;BME280;15455;53.376;-6.262;2023-05-02T11:17:24;102172.81;;;16.78;100.00
28167;BME280;15455;53.376;-6.262;2023-05-02T11:23:21;102179.13;;;16.47;100.00
28167;BME280;15455;53.376;-6.262;2023-05-02T11:26:20;102176.56;;;16.20;100.00
28167;BME280;15455;53.376;-6.262;2023-05-02T11:29:06;102175.75;;;16.01;100.00
28167;BME280;15455;53.376;-6.262;2023-05-02T11:31:52;102176.66;;;15.90;100.00
28167;BME280;15455;53.376;-6.262;2023-05-02T11:34:40;102173.13;;;15.76;100.00
28167;BME280;15455;53.376;-6.262;2023-05-02T11:37:26;102175.75;;;15.68;100.00
28167;BME280;15455;53.376;-6.262;2023-05-02T11:40:14;102168.75;;;15.47;100.00
28167;BME280;15455;53.376;-6.262;2023-05-02T11:43:03;102174.00;;;15.41;100.00
28167;BME280;15455;53.376;-6.262;2023-05-02T11:45:57;102173.97;;;15.16;100.00
28167;BME280;15455;53.376;-6.262;2023-05-02T11:48:44;102178.38;;;15.11;100.00
28167;BME280;15455;53.376;-6.262;2023-05-02T11:51:30;102169.63;;;15.18;100.00
28167;BME280;15455;53.376;-6.262;2023-05-02T11:54:19;102170.50;;;15.33;100.00
28167;BME280;15455;53.376;-6.262;2023-05-02T11:57:05;102161.75;;;15.61;100.00
28167;BME280;15455;53.376;-6.262;2023-05-02T11:59:52;102160.78;;;16.15;100.00
28167;BME280;15455;53.376;-6.262;2023-05-02T12:02:42;102153.50;;;16.70;100.00
28167;BME280;15455;53.376;-6.262;2023-05-02T12:05:28;102162.00;;;17.24;100.00
28167;BME280;15455;53.376;-6.262;2023-05-02T12:08:27;102162.59;;;17.60;100.00
28167;BME280;15455;53.376;-6.262;2023-05-02T12:11:13;102157.88;;;17.95;100.00
28167;BME280;15455;53.376;-6.262;2023-05-02T12:14:02;102153.44;;;17.97;100.00
28167;BME280;15455;53.376;-6.262;2023-05-02T12:16:48;102154.31;;;17.99;100.00
28167;BME280;15455;53.376;-6.262;2023-05-02T12:19:33;102153.44;;;18.00;100.00
28167;BME280;15455;53.376;-6.262;2023-05-02T12:22:22;102148.22;;;17.87;100.00
28167;BME280;15455;53.376;-6.262;2023-05-02T12:25:09;102147.47;;;17.75;100.00
28167;BME280;15455;53.376;-6.262;2023-05-02T12:28:01;102132.56;;;17.69;100.00
28167;BME280;15455;53.376;-6.262;2023-05-02T12:30:48;102138.59;;;17.83;100.00
28167;BME280;15455;53.376;-6.262;2023-05-02T12:33:41;102139.44;;;17.87;100.00
28167;BME280;15455;53.376;-6.262;2023-05-02T12:36:27;102136.56;;;18.12;100.00
28167;BME280;15455;53.376;-6.262;2023-05-02T12:39:13;102131.63;;;18.54;100.00
28167;BME280;15455;53.376;-6.262;2023-05-02T12:41:59;102126.66;;;18.95;100.00
28167;BME280;15455;53.376;-6.262;2023-05-02T12:44:46;102122.84;;;19.14;100.00
28167;BME280;15455;53.376;-6.262;2023-05-02T12:47:43;102125.47;;;19.14;100.00
28167;BME280;15455;53.376;-6.262;2023-05-02T12:50:35;102118.81;;;18.88;100.00
28167;BME280;15455;53.376;-6.262;2023-05-02T12:53:43;102118.56;;;19.05;100.00
28167;BME280;15455;53.376;-6.262;2023-05-02T12:56:37;102120.56;;;19.44;100.00
28167;BME280;15455;53.376;-6.262;2023-05-02T12:59:28;102110.88;;;19.91;100.00
28167;BME280;15455;53.376;-6.262;2023-05-02T13:02:15;102104.81;;;20.30;100.00
28167;BME280;15455;53.376;-6.262;2023-05-02T13:05:00;102106.91;;;20.55;100.00
28167;BME280;15455;53.376;-6.262;2023-05-02T13:07:46;102120.16;;;20.55;100.00
28167;BME280;15455;53.376;-6.262;2023-05-02T13:10:31;102122.00;;;20.53;100.00
28167;BME280;15455;53.376;-6.262;2023-05-02T13:13:17;102126.31;;;20.57;100.00
28167;BME280;15455;53.376;-6.262;2023-05-02T13:16:02;102131.44;;;20.24;100.00
28167;BME280;15455;53.376;-6.262;2023-05-02T13:18:47;102128.25;;;20.08;100.00
28167;BME280;15455;53.376;-6.262;2023-05-02T13:21:33;102124.81;;;20.03;100.00
28167;BME280;15455;53.376;-6.262;2023-05-02T13:24:18;102125.78;;;19.97;100.00
28167;BME280;15455;53.376;-6.262;2023-05-02T13:27:04;102130.66;;;19.72;100.00
28167;BME280;15455;53.376;-6.262;2023-05-02T13:29:50;102141.00;;;19.36;100.00
28167;BME280;15455;53.376;-6.262;2023-05-02T13:32:36;102136.94;;;19.15;100.00
28167;BME280;15455;53.376;-6.262;2023-05-02T13:35:21;102135.00;;;19.26;100.00
28167;BME280;15455;53.376;-6.262;2023-05-02T13:38:07;102134.91;;;19.31;100.00
28167;BME280;15455;53.376;-6.262;2023-05-02T13:40:53;102133.94;;;19.36;100.00
28167;BME280;15455;53.376;-6.262;2023-05-02T13:43:39;102128.84;;;19.25;100.00
28167;BME280;15455;53.376;-6.262;2023-05-02T13:46:25;102129.06;;;19.10;100.00
28167;BME280;15455;53.376;-6.262;2023-05-02T13:49:11;102126.59;;;18.98;100.00
28167;BME280;15455;53.376;-6.262;2023-05-02T13:51:56;102128.34;;;19.00;100.00
28167;BME280;15455;53.376;-6.262;2023-05-02T13:54:41;102116.69;;;19.12;100.00
28167;BME280;15455;53.376;-6.262;2023-05-02T13:57:27;102112.97;;;19.24;100.00
28167;BME280;15455;53.376;-6.262;2023-05-02T14:00:13;102105.81;;;19.29;100.00
28167;BME280;15455;53.376;-6.262;2023-05-02T14:02:59;102102.53;;;19.15;100.00
28167;BME280;15455;53.376;-6.262;2023-05-02T14:05:45;102096.59;;;19.00;100.00
28167;BME280;15455;53.376;-6.262;2023-05-02T14:08:30;102109.06;;;18.92;100.00
28167;BME280;15455;53.376;-6.262;2023-05-02T14:11:16;102104.78;;;18.82;100.00
28167;BME280;15455;53.376;-6.262;2023-05-02T14:14:01;102107.41;;;18.82;100.00
28167;BME280;15455;53.376;-6.262;2023-05-02T14:16:47;102103.72;;;18.97;100.00
28167;BME280;15455;53.376;-6.262;2023-05-02T14:19:34;102106.03;;;19.17;100.00
28167;BME280;15455;53.376;-6.262;2023-05-02T14:22:20;102104.59;;;19.49;100.00
28167;BME280;15455;53.376;-6.262;2023-05-02T14:25:06;102104.00;;;19.83;100.00
28167;BME280;15455;53.376;-6.262;2023-05-02T14:27:52;102093.03;;;20.01;100.00
28167;BME280;15455;53.376;-6.262;2023-05-02T14:30:37;102096.19;;;20.19;100.00
28167;BME280;15455;53.376;-6.262;2023-05-02T14:33:23;102094.00;;;20.38;100.00
28167;BME280;15455;53.376;-6.262;2023-05-02T14:36:08;102096.63;;;20.39;100.00
28167;BME280;15455;53.376;-6.262;2023-05-02T14:38:53;102082.22;;;20.53;100.00
28167;BME280;15455;53.376;-6.262;2023-05-02T14:41:39;102096.47;;;20.47;100.00
28167;BME280;15455;53.376;-6.262;2023-05-02T14:44:24;102092.53;;;20.65;100.00
28167;BME280;15455;53.376;-6.262;2023-05-02T14:47:09;102088.88;;;20.71;100.00
28167;BME280;15455;53.376;-6.262;2023-05-02T14:49:55;102096.34;;;20.53;100.00
28167;BME280;15455;53.376;-6.262;2023-05-02T14:52:41;102102.16;;;20.30;100.00
28167;BME280;15455;53.376;-6.262;2023-05-02T14:55:27;102098.13;;;20.10;100.00
28167;BME280;15455;53.376;-6.262;2023-05-02T14:58:12;102101.50;;;20.19;100.00